Time;durP1;ratioP1;P1;durP2;ratioP2;P2;SDS_P1;SDS_P2;PMS_P1;PMS_P2;Temp;Humidity;BMP_temperature;BMP_pressure;BME280_temperature;BME280_humidity;BME280_pressure;Samples;Min_cycle;Max_cycle;Signal;HPM_P1;HPM_P2
2023/10/22 00:00:14;;;;;;;6.87;2.57;;;10.60;99.90;;;;;;5116354;27;20225;-81
2023/10/22 00:02:41;;;;;;;3.00;1.77;;;10.50;99.90;;;;;;5119340;27;20201;-82
2023/10/22 00:05:09;;;;;;;2.30;1.47;;;10.50;99.90;;;;;;5116284;27;20660;-81
2023/10/22 00:07:36;;;;;;;4.10;1.40;;;10.60;99.90;;;;;;5117218;27;20211;-82
2023/10/22 00:10:05;;;;;;;2.47;1.30;;;10.50;99.90;;;;;;5118214;27;20205;-82
2023/10/22 00:12:31;;;;;;;1.70;1.20;;;10.60;99.90;;;;;;5118876;27;20569;-81
2023/10/22 00:14:58;;;;;;;2.10;1.30;;;10.60;99.90;;;;;;5122522;27;20582;-82
2023/10/22 00:17:25;;;;;;;2.57;1.57;;;10.60;99.90;;;;;;5122460;27;20571;-81
2023/10/22 00:19:52;;;;;;;4.17;1.50;;;10.50;99.90;;;;;;5115116;28;20220;-81
2023/10/22 00:22:19;;;;;;;3.60;1.80;;;10.50;99.90;;;;;;5117531;27;20579;-81
2023/10/22 00:24:45;;;;;;;2.23;1.60;;;10.50;99.90;;;;;;5120231;27;20595;-81
2023/10/22 00:27:14;;;;;;;3.63;1.33;;;10.40;99.90;;;;;;5117557;27;20197;-81
2023/10/22 00:29:40;;;;;;;3.90;1.17;;;10.40;99.90;;;;;;5116906;27;20205;-81
2023/10/22 00:32:07;;;;;;;4.17;1.47;;;10.30;99.90;;;;;;5121527;27;20219;-80
2023/10/22 00:34:34;;;;;;;5.10;1.53;;;10.30;99.90;;;;;;5121571;27;20747;-80
2023/10/22 00:37:02;;;;;;;3.97;1.60;;;10.30;99.90;;;;;;5120372;27;20197;-80
2023/10/22 00:39:29;;;;;;;2.67;1.47;;;10.20;99.90;;;;;;5118791;27;20246;-81
2023/10/22 00:41:56;;;;;;;3.90;1.50;;;10.50;99.90;;;;;;5121205;27;20222;-80
2023/10/22 00:44:24;;;;;;;5.73;1.37;;;10.60;99.90;;;;;;5120713;27;20362;-81
2023/10/22 00:46:52;;;;;;;3.70;1.63;;;10.50;99.90;;;;;;5120545;27;20193;-81
2023/10/22 00:49:19;;;;;;;4.10;1.40;;;10.60;99.90;;;;;;5119281;27;20197;-81
2023/10/22 00:51:48;;;;;;;3.80;1.30;;;10.50;99.90;;;;;;5117410;27;20223;-81
2023/10/22 00:54:15;;;;;;;4.07;1.50;;;10.40;99.90;;;;;;5122341;27;20201;-82
2023/10/22 00:56:42;;;;;;;2.50;1.50;;;10.50;99.90;;;;;;5114241;28;20220;-80
2023/10/22 00:59:11;;;;;;;3.13;1.43;;;10.50;99.90;;;;;;5121792;27;20292;-81
2023/10/22 01:01:39;;;;;;;5.10;2.07;;;10.50;99.90;;;;;;5121220;27;20249;-81
2023/10/22 01:04:07;;;;;;;3.13;1.73;;;10.50;99.90;;;;;;5115479;27;20199;-81
2023/10/22 01:06:34;;;;;;;3.40;1.63;;;10.40;99.90;;;;;;5117045;27;20230;-80
2023/10/22 01:09:01;;;;;;;4.17;1.70;;;10.20;99.90;;;;;;5119510;27;20577;-80
2023/10/22 01:11:28;;;;;;;4.50;1.70;;;10.30;99.90;;;;;;5114742;28;20749;-81
2023/10/22 01:13:55;;;;;;;1.93;1.30;;;10.30;99.90;;;;;;5118315;27;20656;-81
2023/10/22 01:16:22;;;;;;;7.43;1.40;;;10.10;99.90;;;;;;5119323;27;20567;-80
2023/10/22 01:18:50;;;;;;;4.53;1.33;;;10.20;99.90;;;;;;5119497;27;20209;-81
2023/10/22 01:21:17;;;;;;;1.93;1.27;;;10.20;99.90;;;;;;5120500;27;20217;-80
2023/10/22 01:23:45;;;;;;;9.60;2.30;;;10.20;99.90;;;;;;5116494;27;20201;-81
2023/10/22 01:26:13;;;;;;;3.83;1.80;;;10.40;99.90;;;;;;5115295;28;20209;-81
2023/10/22 01:28:40;;;;;;;5.33;1.50;;;10.40;99.90;;;;;;5118327;27;20321;-80
2023/10/22 01:31:10;;;;;;;3.67;1.20;;;10.50;99.90;;;;;;5114545;27;20224;-82
2023/10/22 01:33:37;;;;;;;3.33;1.60;;;10.60;99.90;;;;;;5122038;27;20599;-81
2023/10/22 01:36:04;;;;;;;2.67;1.20;;;10.50;99.90;;;;;;5126572;27;20212;-81
2023/10/22 01:38:31;;;;;;;2.87;1.10;;;10.40;99.90;;;;;;5119477;27;20201;-81
2023/10/22 01:40:59;;;;;;;3.63;1.97;;;10.70;99.90;;;;;;5120239;28;20224;-82
2023/10/22 01:43:26;;;;;;;4.50;1.73;;;10.60;99.90;;;;;;5114865;27;20730;-81
2023/10/22 01:45:52;;;;;;;4.40;1.70;;;10.50;99.90;;;;;;5121915;27;20578;-80
2023/10/22 01:48:19;;;;;;;2.63;1.50;;;10.60;99.90;;;;;;5115313;28;20567;-80
2023/10/22 01:50:46;;;;;;;2.63;1.50;;;10.50;99.90;;;;;;5118393;27;20231;-81
2023/10/22 01:53:13;;;;;;;4.03;1.40;;;10.40;99.90;;;;;;5117384;28;20223;-81
2023/10/22 01:55:39;;;;;;;2.60;1.70;;;10.50;99.90;;;;;;5116780;27;20215;-81
2023/10/22 01:58:08;;;;;;;4.73;1.10;;;10.50;99.90;;;;;;5117307;28;20197;-82
2023/10/22 02:00:34;;;;;;;3.73;1.10;;;10.40;99.90;;;;;;5115148;27;20232;-82
2023/10/22 02:03:01;;;;;;;3.57;1.87;;;10.30;99.90;;;;;;5122671;27;20200;-81
2023/10/22 02:05:32;;;;;;;6.40;2.67;;;10.50;99.90;;;;;;5115646;27;20196;-82
2023/10/22 02:07:59;;;;;;;4.00;1.67;;;10.50;99.90;;;;;;5113913;28;20208;-81
2023/10/22 02:10:26;;;;;;;5.00;1.50;;;10.50;99.90;;;;;;5114620;28;20217;-81
2023/10/22 02:12:52;;;;;;;2.23;1.00;;;10.40;99.90;;;;;;5118509;28;20192;-81
2023/10/22 02:15:21;;;;;;;2.73;1.20;;;10.30;99.90;;;;;;5119115;28;20193;-82
2023/10/22 02:17:47;;;;;;;2.17;1.00;;;10.40;99.90;;;;;;5116356;27;23534;-82
2023/10/22 02:20:14;;;;;;;5.67;1.50;;;10.50;99.90;;;;;;5115866;28;20201;-81
2023/10/22 02:22:41;;;;;;;3.10;1.93;;;10.50;99.90;;;;;;5120705;27;20245;-81
2023/10/22 02:25:08;;;;;;;2.57;1.30;;;10.40;99.90;;;;;;5122583;27;20207;-82
2023/10/22 02:27:35;;;;;;;3.73;1.40;;;10.60;99.90;;;;;;5119017;27;20664;-82
2023/10/22 02:30:02;;;;;;;3.90;1.60;;;10.40;99.90;;;;;;5123522;27;21349;-81
2023/10/22 02:32:30;;;;;;;2.73;1.17;;;10.30;99.90;;;;;;5120494;27;20200;-82
2023/10/22 02:34:57;;;;;;;1.57;1.07;;;10.50;99.90;;;;;;5120756;27;20199;-81
2023/10/22 02:37:24;;;;;;;2.73;1.10;;;10.40;99.90;;;;;;5128868;27;20729;-82
2023/10/22 02:39:50;;;;;;;3.30;1.20;;;10.30;99.90;;;;;;5120124;27;20196;-81
2023/10/22 02:42:17;;;;;;;1.97;1.10;;;10.20;99.90;;;;;;5120890;27;20227;-82
2023/10/22 02:44:44;;;;;;;4.63;1.30;;;10.20;99.90;;;;;;5130437;27;20197;-82
2023/10/22 02:47:11;;;;;;;6.20;1.30;;;10.10;99.90;;;;;;5118083;27;20193;-81
2023/10/22 02:49:39;;;;;;;2.67;1.20;;;10.30;99.90;;;;;;5123676;27;20201;-81
2023/10/22 02:52:06;;;;;;;4.70;1.63;;;10.20;99.90;;;;;;5119869;27;20889;-81
2023/10/22 02:54:33;;;;;;;2.93;1.07;;;10.30;99.90;;;;;;5120386;27;20581;-81
2023/10/22 02:57:00;;;;;;;3.37;1.23;;;10.20;99.90;;;;;;5127109;27;20541;-80
2023/10/22 02:59:27;;;;;;;2.50;1.30;;;10.20;99.90;;;;;;5119144;27;20204;-80
2023/10/22 03:01:54;;;;;;;5.73;1.10;;;10.30;99.90;;;;;;5119690;27;20217;-82
2023/10/22 03:04:21;;;;;;;3.37;1.37;;;10.50;99.90;;;;;;5122037;27;20223;-80
2023/10/22 03:06:49;;;;;;;3.80;1.17;;;10.60;99.90;;;;;;5119168;27;20215;-81
2023/10/22 03:09:16;;;;;;;3.07;0.67;;;10.60;99.90;;;;;;5119915;27;20690;-80
2023/10/22 03:11:43;;;;;;;2.60;1.07;;;10.70;99.90;;;;;;5120662;27;20223;-81
2023/10/22 03:14:10;;;;;;;2.80;1.00;;;10.70;99.90;;;;;;5118372;27;20192;-81
2023/10/22 03:16:36;;;;;;;4.23;1.00;;;10.60;99.90;;;;;;5119703;27;20698;-81
2023/10/22 03:19:03;;;;;;;3.17;1.00;;;10.40;99.90;;;;;;5118173;27;20291;-81
2023/10/22 03:21:35;;;;;;;3.43;0.97;;;10.60;99.90;;;;;;5118581;27;20312;-81
2023/10/22 03:24:03;;;;;;;1.80;0.93;;;10.80;99.90;;;;;;5126362;27;20207;-81
2023/10/22 03:26:31;;;;;;;3.13;1.10;;;10.80;99.90;;;;;;5118998;27;20199;-81
2023/10/22 03:28:57;;;;;;;3.80;1.00;;;10.80;99.90;;;;;;5119454;27;20573;-81
2023/10/22 03:31:25;;;;;;;2.27;0.70;;;10.80;99.90;;;;;;5119112;27;20208;-82
2023/10/22 03:33:52;;;;;;;4.10;1.30;;;10.70;99.90;;;;;;5120607;27;20734;-82
2023/10/22 03:36:18;;;;;;;1.60;1.20;;;10.50;99.90;;;;;;5120920;27;20679;-81
2023/10/22 03:38:45;;;;;;;3.23;0.87;;;10.60;99.90;;;;;;5120690;27;20578;-81
2023/10/22 03:41:14;;;;;;;3.27;0.87;;;10.70;99.90;;;;;;5117129;27;20219;-82
2023/10/22 03:43:41;;;;;;;4.10;1.10;;;11.00;99.90;;;;;;5117217;28;20721;-81
2023/10/22 03:46:07;;;;;;;4.70;1.20;;;11.00;99.90;;;;;;5113834;27;20203;-80
2023/10/22 03:48:34;;;;;;;6.47;1.27;;;11.10;99.90;;;;;;5120675;27;20197;-82
2023/10/22 03:51:03;;;;;;;2.97;0.73;;;11.30;99.90;;;;;;5117627;27;20221;-81
2023/10/22 03:53:30;;;;;;;5.07;1.23;;;11.30;99.90;;;;;;5117683;28;20225;-81
2023/10/22 03:55:56;;;;;;;6.87;1.57;;;11.40;99.90;;;;;;5118844;27;20211;-81
2023/10/22 03:58:25;;;;;;;4.33;1.27;;;11.50;99.90;;;;;;5118956;27;20294;-82
2023/10/22 04:00:54;;;;;;;3.80;0.93;;;11.50;99.90;;;;;;5125031;27;20220;-82
2023/10/22 04:03:22;;;;;;;1.97;1.10;;;11.40;99.90;;;;;;5119279;27;20209;-82
2023/10/22 04:05:55;;;;;;;2.67;1.10;;;11.30;99.90;;;;;;5123703;27;20204;-81
2023/10/22 04:08:22;;;;;;;3.17;1.00;;;11.60;99.90;;;;;;5118688;27;20205;-82
2023/10/22 04:10:49;;;;;;;3.43;1.33;;;11.50;99.90;;;;;;5119248;27;20454;-82
2023/10/22 04:13:16;;;;;;;4.30;1.67;;;11.50;99.90;;;;;;5119080;27;20188;-81
2023/10/22 04:15:45;;;;;;;2.00;0.80;;;11.50;99.90;;;;;;5120075;27;20287;-80
2023/10/22 04:18:12;;;;;;;1.50;1.00;;;11.50;99.90;;;;;;5123612;27;20193;-81
2023/10/22 04:20:39;;;;;;;3.07;1.00;;;11.60;99.90;;;;;;5117271;27;20231;-81
2023/10/22 04:23:08;;;;;;;2.20;0.70;;;11.60;99.90;;;;;;5116587;28;20604;-81
2023/10/22 04:25:38;;;;;;;5.73;1.13;;;11.50;99.90;;;;;;5120271;27;20205;-81
2023/10/22 04:28:05;;;;;;;3.27;0.80;;;11.50;99.90;;;;;;5118774;27;20729;-83
2023/10/22 04:30:33;;;;;;;2.47;0.90;;;11.40;99.90;;;;;;5124408;27;20319;-82
2023/10/22 04:33:01;;;;;;;4.57;1.27;;;11.40;99.90;;;;;;5120497;27;20254;-80
2023/10/22 04:35:28;;;;;;;2.33;1.43;;;11.30;99.90;;;;;;5125754;27;20200;-81
2023/10/22 04:37:56;;;;;;;6.47;3.33;;;11.30;99.90;;;;;;5123705;27;20200;-82
2023/10/22 04:40:26;;;;;;;4.20;1.00;;;11.10;99.90;;;;;;5122894;27;20263;-82
2023/10/22 04:42:55;;;;;;;2.87;0.77;;;11.00;99.90;;;;;;5121788;27;20379;-81
2023/10/22 04:45:22;;;;;;;5.10;1.37;;;11.40;99.90;;;;;;5111483;27;20203;-82
2023/10/22 04:47:49;;;;;;;3.83;1.00;;;11.20;99.90;;;;;;5113347;27;20244;-82
2023/10/22 04:50:18;;;;;;;2.37;0.80;;;11.20;99.90;;;;;;5120598;27;20666;-81
2023/10/22 04:52:44;;;;;;;4.73;1.23;;;11.40;99.90;;;;;;5114914;27;20239;-83
2023/10/22 04:55:11;;;;;;;2.20;0.73;;;11.30;99.90;;;;;;5115163;27;20205;-80
2023/10/22 04:57:38;;;;;;;4.00;1.07;;;11.20;99.90;;;;;;5116282;27;20296;-82
2023/10/22 05:00:07;;;;;;;3.17;1.20;;;11.20;99.90;;;;;;5114734;27;20201;-82
2023/10/22 05:02:33;;;;;;;3.07;1.00;;;11.30;99.90;;;;;;5116045;27;20721;-81
2023/10/22 05:05:00;;;;;;;5.93;1.10;;;11.10;99.90;;;;;;5109599;27;20201;-82
2023/10/22 05:07:28;;;;;;;4.60;1.73;;;11.40;99.90;;;;;;5107524;27;20304;-81
2023/10/22 05:09:55;;;;;;;5.00;0.80;;;11.20;99.90;;;;;;5109741;27;20213;-81
2023/10/22 05:12:22;;;;;;;4.50;1.20;;;11.10;99.90;;;;;;5114728;27;20217;-80
2023/10/22 05:14:49;;;;;;;3.73;1.07;;;11.20;99.90;;;;;;5114828;28;20560;-81
2023/10/22 05:17:15;;;;;;;2.80;1.20;;;11.20;99.90;;;;;;5116802;27;20224;-81
2023/10/22 05:19:43;;;;;;;4.40;0.90;;;11.10;99.90;;;;;;5114638;28;20205;-82
2023/10/22 05:22:09;;;;;;;3.27;1.10;;;11.10;99.90;;;;;;5111780;27;20225;-83
2023/10/22 05:24:37;;;;;;;4.90;1.73;;;11.20;99.90;;;;;;5114582;27;20208;-82
2023/10/22 05:27:05;;;;;;;12.17;4.30;;;11.10;99.90;;;;;;5116208;27;20288;-81
2023/10/22 05:29:31;;;;;;;4.90;1.63;;;11.10;99.90;;;;;;5113127;27;20720;-80
2023/10/22 05:31:58;;;;;;;3.63;1.13;;;11.10;99.90;;;;;;5118472;27;20224;-81
2023/10/22 05:34:25;;;;;;;3.37;0.77;;;11.10;99.90;;;;;;5117811;27;20250;-82
2023/10/22 05:36:52;;;;;;;3.60;1.60;;;11.10;99.90;;;;;;5119824;27;20197;-81
2023/10/22 05:39:19;;;;;;;2.03;1.00;;;11.10;99.90;;;;;;5122475;27;20200;-82
2023/10/22 05:41:47;;;;;;;4.93;1.20;;;11.00;99.90;;;;;;5117977;27;20274;-81
2023/10/22 05:44:14;;;;;;;2.50;1.10;;;11.00;99.90;;;;;;5115049;27;20207;-81
2023/10/22 05:46:41;;;;;;;3.47;0.90;;;11.00;99.90;;;;;;5114479;27;20208;-82
2023/10/22 05:49:10;;;;;;;2.97;1.17;;;11.10;99.90;;;;;;5111574;27;20205;-80
2023/10/22 05:51:37;;;;;;;5.90;1.90;;;11.10;99.90;;;;;;5115675;27;20657;-82
2023/10/22 05:54:04;;;;;;;8.73;1.70;;;10.90;99.90;;;;;;5118871;27;20201;-81
2023/10/22 05:56:32;;;;;;;1.90;1.00;;;10.80;99.90;;;;;;5120359;28;20623;-81
2023/10/22 05:59:04;;;;;;;2.33;0.70;;;10.80;99.90;;;;;;5122190;27;20227;-81
2023/10/22 06:01:31;;;;;;;2.50;1.00;;;10.80;99.90;;;;;;5117448;27;20220;-81
2023/10/22 06:03:58;;;;;;;3.43;1.07;;;10.70;99.90;;;;;;5120680;27;20232;-82
2023/10/22 06:06:24;;;;;;;10.87;1.40;;;10.80;99.90;;;;;;5122252;27;20232;-81
2023/10/22 06:08:51;;;;;;;5.00;1.13;;;10.90;99.90;;;;;;5122349;27;20212;-80
2023/10/22 06:11:18;;;;;;;3.93;1.00;;;11.00;99.90;;;;;;5119827;27;20225;-81
2023/10/22 06:13:45;;;;;;;4.43;1.23;;;11.10;99.90;;;;;;5115226;27;20264;-83
2023/10/22 06:16:13;;;;;;;3.80;1.00;;;11.00;99.90;;;;;;5112046;27;20230;-81
2023/10/22 06:18:40;;;;;;;4.83;0.97;;;11.00;99.90;;;;;;5116775;27;20208;-81
2023/10/22 06:21:13;;;;;;;5.63;1.47;;;10.90;99.90;;;;;;5121320;27;20220;-80
2023/10/22 06:23:40;;;;;;;3.43;1.20;;;11.00;99.90;;;;;;5120567;27;20235;-80
2023/10/22 06:26:09;;;;;;;1.23;0.80;;;11.00;99.90;;;;;;5120837;27;20299;-82
2023/10/22 06:28:36;;;;;;;3.03;1.03;;;11.00;99.90;;;;;;5113696;27;20679;-82
2023/10/22 06:31:07;;;;;;;4.47;1.23;;;11.10;99.90;;;;;;5121391;27;20231;-81
2023/10/22 06:33:36;;;;;;;2.60;0.90;;;11.30;99.90;;;;;;5120962;27;20211;-82
2023/10/22 06:36:14;;;;;;;5.77;1.17;;;11.20;99.90;;;;;;5119979;27;20245;-81
2023/10/22 06:38:40;;;;;;;3.67;1.17;;;11.10;99.90;;;;;;5117483;27;20207;-80
2023/10/22 06:41:14;;;;;;;2.60;1.00;;;11.30;99.90;;;;;;5125248;27;20232;-80
2023/10/22 06:43:41;;;;;;;5.10;0.93;;;11.50;99.90;;;;;;5125572;27;20228;-80
2023/10/22 06:46:08;;;;;;;4.60;0.93;;;11.50;99.90;;;;;;5119405;28;20207;-80
2023/10/22 06:48:36;;;;;;;4.57;1.07;;;11.90;99.90;;;;;;5122991;27;20266;-81
2023/10/22 06:51:03;;;;;;;4.20;0.93;;;11.80;99.90;;;;;;5124442;27;20237;-79
2023/10/22 06:53:31;;;;;;;3.40;1.30;;;11.70;99.90;;;;;;5128377;27;20193;-78
2023/10/22 06:55:58;;;;;;;3.10;1.00;;;11.90;99.90;;;;;;5123949;27;20667;-79
2023/10/22 06:58:24;;;;;;;2.90;1.13;;;11.90;99.90;;;;;;5123952;27;20316;-79
2023/10/22 07:00:54;;;;;;;1.80;1.03;;;12.00;99.90;;;;;;5131143;27;20224;-81
2023/10/22 07:03:21;;;;;;;5.97;1.40;;;12.00;99.90;;;;;;5131840;27;20235;-79
2023/10/22 07:05:49;;;;;;;4.90;1.50;;;12.00;99.90;;;;;;5127912;27;20299;-79
2023/10/22 07:08:18;;;;;;;4.37;1.40;;;12.10;99.90;;;;;;5124493;27;20205;-78
2023/10/22 07:10:45;;;;;;;1.97;1.07;;;12.10;99.90;;;;;;5123847;27;20228;-79
2023/10/22 07:13:12;;;;;;;6.40;1.43;;;12.30;99.90;;;;;;5125407;27;20203;-78
2023/10/22 07:15:38;;;;;;;3.37;0.90;;;12.20;99.90;;;;;;5123446;28;20211;-79
2023/10/22 07:18:05;;;;;;;4.37;1.00;;;12.20;99.90;;;;;;5122671;27;20221;-81
2023/10/22 07:20:32;;;;;;;3.30;0.83;;;12.30;99.90;;;;;;5127762;27;20312;-81
2023/10/22 07:23:01;;;;;;;2.50;1.37;;;12.30;99.90;;;;;;5121493;27;20221;-80
2023/10/22 07:25:28;;;;;;;3.07;1.00;;;12.30;99.90;;;;;;5126648;27;20545;-80
2023/10/22 07:27:55;;;;;;;1.43;0.80;;;12.50;99.90;;;;;;5122012;27;20213;-79
2023/10/22 07:30:21;;;;;;;0.77;0.63;;;13.00;99.90;;;;;;5122480;28;20224;-78
2023/10/22 07:32:50;;;;;;;3.50;1.10;;;12.70;99.90;;;;;;5120559;27;20283;-79
2023/10/22 07:35:17;;;;;;;6.73;1.70;;;12.50;99.90;;;;;;5126190;27;20215;-79
2023/10/22 07:37:45;;;;;;;5.43;1.50;;;12.50;99.90;;;;;;5124434;27;20272;-82
2023/10/22 07:40:14;;;;;;;3.47;1.00;;;12.50;99.90;;;;;;5127491;27;20575;-81
2023/10/22 07:42:41;;;;;;;2.27;1.00;;;12.60;99.90;;;;;;5124511;27;20212;-81
2023/10/22 07:45:08;;;;;;;3.10;1.53;;;12.50;99.90;;;;;;5131547;27;20226;-79
2023/10/22 07:47:36;;;;;;;2.87;1.17;;;12.60;99.90;;;;;;5127803;27;20215;-78
2023/10/22 07:50:03;;;;;;;3.43;1.10;;;12.70;99.90;;;;;;5121985;27;20684;-81
2023/10/22 07:52:30;;;;;;;4.83;1.33;;;12.60;99.90;;;;;;5121741;27;20391;-79
2023/10/22 07:54:57;;;;;;;1.20;1.03;;;12.70;99.90;;;;;;5122134;27;20208;-79
2023/10/22 07:57:26;;;;;;;3.07;1.20;;;12.60;99.90;;;;;;5122797;27;20207;-79
2023/10/22 07:59:53;;;;;;;7.37;2.50;;;12.50;99.90;;;;;;5122003;27;20296;-79
2023/10/22 08:02:20;;;;;;;5.87;1.83;;;12.70;99.90;;;;;;5119347;27;20217;-79
2023/10/22 08:04:47;;;;;;;4.33;1.37;;;12.70;99.90;;;;;;5127358;27;20258;-81
2023/10/22 08:07:17;;;;;;;5.70;1.13;;;12.70;99.90;;;;;;5122160;27;20240;-80
2023/10/22 08:09:44;;;;;;;3.50;0.83;;;12.60;99.90;;;;;;5119361;27;20209;-82
2023/10/22 08:12:11;;;;;;;2.30;0.87;;;12.60;99.90;;;;;;5119699;28;20228;-81
2023/10/22 08:14:39;;;;;;;3.83;0.73;;;12.60;99.90;;;;;;5117474;27;20296;-80
2023/10/22 08:17:06;;;;;;;4.20;1.00;;;12.50;99.90;;;;;;5117333;27;20197;-80
2023/10/22 08:19:33;;;;;;;3.87;0.90;;;12.50;99.90;;;;;;5126572;27;20998;-79
2023/10/22 08:22:00;;;;;;;3.23;1.00;;;12.60;99.90;;;;;;5122457;28;20232;-80
2023/10/22 08:24:30;;;;;;;4.53;1.20;;;12.70;99.90;;;;;;5122828;27;20244;-78
2023/10/22 08:27:00;;;;;;;1.90;1.10;;;12.70;99.90;;;;;;5124873;27;20296;-80
2023/10/22 08:29:27;;;;;;;2.27;1.10;;;12.70;99.90;;;;;;5122514;27;20201;-78
2023/10/22 08:31:55;;;;;;;2.77;0.83;;;12.80;99.90;;;;;;5125268;27;20224;-80
2023/10/22 08:34:22;;;;;;;1.93;1.00;;;12.80;99.90;;;;;;5122583;27;20196;-80
2023/10/22 08:36:49;;;;;;;3.80;1.03;;;13.10;99.90;;;;;;5122109;27;20652;-80
2023/10/22 08:39:16;;;;;;;3.40;1.03;;;13.00;99.90;;;;;;5122164;27;20197;-81
2023/10/22 08:41:48;;;;;;;2.43;0.83;;;13.10;99.90;;;;;;5122156;27;20224;-82
2023/10/22 08:44:16;;;;;;;4.30;1.00;;;13.20;99.90;;;;;;5122624;28;20247;-80
2023/10/22 08:46:43;;;;;;;2.50;1.00;;;13.30;99.90;;;;;;5122710;27;20295;-80
2023/10/22 08:49:12;;;;;;;3.80;1.10;;;13.40;99.90;;;;;;5123826;27;20220;-80
2023/10/22 08:51:39;;;;;;;3.83;1.00;;;13.40;99.90;;;;;;5122611;27;20319;-81
2023/10/22 08:54:09;;;;;;;2.90;1.10;;;13.50;99.90;;;;;;5122898;27;20569;-79
2023/10/22 08:56:36;;;;;;;2.78;1.00;;;13.60;99.90;;;;;;5121638;28;20208;-80
2023/10/22 08:59:05;;;;;;;2.57;1.40;;;13.70;99.90;;;;;;5122761;27;20277;-83
2023/10/22 09:01:32;;;;;;;3.63;1.00;;;13.70;99.90;;;;;;5122187;27;20232;-82
2023/10/22 09:03:59;;;;;;;2.97;0.80;;;13.70;99.90;;;;;;5119654;27;20213;-82
2023/10/22 09:06:27;;;;;;;2.17;1.10;;;13.80;99.90;;;;;;5121092;28;20201;-82
2023/10/22 09:08:54;;;;;;;3.70;1.33;;;13.80;99.90;;;;;;5121639;27;20205;-81
2023/10/22 09:11:21;;;;;;;2.23;1.00;;;13.80;99.90;;;;;;5120554;27;20236;-81
2023/10/22 09:13:48;;;;;;;1.95;0.82;;;13.70;99.90;;;;;;5120370;27;20211;-80
2023/10/22 09:16:29;;;;;;;3.47;0.97;;;13.70;99.90;;;;;;5120766;27;20624;-81
2023/10/22 09:18:57;;;;;;;3.60;1.27;;;13.70;99.90;;;;;;5117934;28;20668;-81
2023/10/22 09:21:25;;;;;;;5.20;1.80;;;13.70;99.90;;;;;;5122641;27;20225;-79
2023/10/22 09:24:05;;;;;;;7.05;4.53;;;13.70;99.90;;;;;;5121259;27;20225;-80
2023/10/22 09:26:42;;;;;;;3.25;0.88;;;13.70;99.90;;;;;;5113715;27;20219;-80
2023/10/22 09:29:08;;;;;;;1.83;1.02;;;13.80;99.90;;;;;;5120817;28;20625;-79
2023/10/22 09:31:35;;;;;;;3.30;0.90;;;13.80;99.90;;;;;;5119693;27;20227;-80
2023/10/22 09:34:02;;;;;;;3.73;1.10;;;13.90;99.90;;;;;;5120507;28;20292;-81
2023/10/22 09:36:29;;;;;;;2.43;0.80;;;13.90;99.90;;;;;;5121813;27;20212;-81
2023/10/22 09:38:57;;;;;;;2.77;1.20;;;14.00;99.90;;;;;;5123523;28;20215;-79
2023/10/22 09:41:29;;;;;;;1.23;0.70;;;14.20;99.90;;;;;;5120063;27;20256;-79
2023/10/22 09:43:57;;;;;;;5.28;1.48;;;14.10;99.90;;;;;;5121472;27;20221;-80
2023/10/22 09:46:30;;;;;;;2.20;1.20;;;14.10;99.90;;;;;;5121599;27;20205;-79
2023/10/22 09:48:59;;;;;;;2.67;1.10;;;14.20;99.90;;;;;;5124101;28;20217;-80
2023/10/22 09:51:30;;;;;;;4.22;1.60;;;14.10;99.90;;;;;;5124610;28;20225;-81
2023/10/22 09:53:58;;;;;;;2.47;1.27;;;14.20;99.90;;;;;;5120435;28;20291;-80
2023/10/22 09:56:25;;;;;;;4.32;1.10;;;14.20;99.90;;;;;;5123449;28;20664;-79
2023/10/22 09:58:59;;;;;;;2.40;0.87;;;14.20;33.50;;;;;;5123486;27;20220;-80
2023/10/22 10:01:30;;;;;;;1.20;0.75;;;14.20;66.10;;;;;;5123241;28;20228;-79
2023/10/22 10:03:59;;;;;;;3.28;1.08;;;14.20;99.90;;;;;;5124135;27;20221;-79
2023/10/22 10:06:26;;;;;;;2.28;1.10;;;14.20;99.90;;;;;;5123678;28;20204;-80
2023/10/22 10:08:53;;;;;;;4.72;1.38;;;14.20;99.90;;;;;;5121819;27;20228;-79
2023/10/22 10:11:21;;;;;;;49.20;33.15;;;14.20;99.90;;;;;;5121651;27;20305;-81
2023/10/22 10:13:48;;;;;;;3.70;1.42;;;14.30;99.90;;;;;;5122353;28;20268;-80
2023/10/22 10:16:16;;;;;;;3.22;1.20;;;14.40;99.90;;;;;;5120581;27;20196;-81
2023/10/22 10:19:03;;;;;;;2.63;0.88;;;14.40;99.90;;;;;;5123472;28;20236;-81
2023/10/22 10:21:47;;;;;;;3.45;0.80;;;14.50;99.90;;;;;;5123406;27;20628;-80
2023/10/22 10:24:22;;;;;;;1.90;1.10;;;14.60;99.90;;;;;;5114274;27;20223;-82
2023/10/22 10:26:50;;;;;;;1.52;0.88;;;14.60;99.90;;;;;;5122460;27;20223;-77
2023/10/22 10:29:18;;;;;;;0.95;0.60;;;14.60;1.00;;;;;;5121737;27;20292;-83
2023/10/22 10:31:48;;;;;;;2.45;0.90;;;15.00;99.90;;;;;;5121899;28;20224;-82
2023/10/22 10:34:26;;;;;;;2.90;0.88;;;15.60;95.80;;;;;;5131032;27;20197;-81
2023/10/22 10:36:53;;;;;;;4.65;0.70;;;16.10;1.00;;;;;;5122323;27;20268;-79
2023/10/22 10:39:40;;;;;;;2.70;1.00;;;16.30;1.00;;;;;;5121090;27;20277;-78
2023/10/22 10:42:07;;;;;;;2.35;0.93;;;16.40;1.00;;;;;;5124748;28;20220;-81
2023/10/22 10:45:05;;;;;;;3.92;2.03;;;16.60;1.00;;;;;;5120442;28;20325;-80
2023/10/22 10:47:33;;;;;;;2.10;1.10;;;16.70;1.00;;;;;;5122236;28;20244;-80
2023/10/22 10:50:02;;;;;;;1.30;0.90;;;17.00;1.00;;;;;;5119583;27;20209;-80
2023/10/22 10:52:30;;;;;;;1.25;0.68;;;17.00;99.90;;;;;;5124899;27;20205;-79
2023/10/22 10:55:01;;;;;;;1.58;0.80;;;16.90;99.90;;;;;;5124313;28;20208;-78
2023/10/22 10:57:35;;;;;;;2.22;0.85;;;17.10;99.90;;;;;;5124637;28;20639;-80
2023/10/22 11:00:04;;;;;;;3.42;1.23;;;17.00;99.90;;;;;;5124782;27;20204;-78
2023/10/22 11:02:40;;;;;;;2.50;1.15;;;17.10;99.90;;;;;;5123869;28;20208;-78
2023/10/22 11:05:08;;;;;;;1.80;0.63;;;17.20;99.90;;;;;;5122402;27;20224;-77
2023/10/22 11:07:35;;;;;;;1.23;0.65;;;17.50;99.90;;;;;;5123153;27;20211;-79
2023/10/22 11:10:08;;;;;;;1.98;0.60;;;17.20;99.90;;;;;;5125584;27;20304;-81
2023/10/22 11:12:35;;;;;;;1.77;0.57;;;17.30;89.70;;;;;;5124884;27;20219;-80
2023/10/22 11:15:02;;;;;;;0.70;0.50;;;17.20;13.70;;;;;;5125092;27;20205;-79
2023/10/22 11:17:29;;;;;;;2.03;0.90;;;16.60;1.00;;;;;;5126153;27;20201;-80
2023/10/22 11:19:58;;;;;;;2.53;0.73;;;16.60;1.00;;;;;;5129791;27;20630;-79
2023/10/22 11:22:24;;;;;;;2.33;0.75;;;16.50;99.90;;;;;;5126019;28;20236;-80
2023/10/22 11:24:52;;;;;;;2.92;0.50;;;16.50;99.90;;;;;;5128862;27;20578;-79
2023/10/22 11:27:20;;;;;;;1.13;0.73;;;16.60;99.90;;;;;;5125479;28;20201;-79
2023/10/22 11:29:48;;;;;;;2.53;0.73;;;16.70;90.30;;;;;;5124760;27;20205;-79
2023/10/22 11:32:16;;;;;;;3.25;0.80;;;16.50;1.00;;;;;;5123615;27;20238;-79
2023/10/22 11:34:49;;;;;;;2.17;1.20;;;16.40;55.00;;;;;;5127917;27;20217;-80
2023/10/22 11:37:19;;;;;;;1.80;1.05;;;16.30;1.00;;;;;;5124671;27;20240;-81
2023/10/22 11:39:46;;;;;;;1.95;0.80;;;16.30;1.00;;;;;;5123063;27;20232;-82
2023/10/22 11:42:13;;;;;;;2.28;1.15;;;16.20;37.10;;;;;;5117066;27;20236;-79
2023/10/22 11:44:45;;;;;;;1.27;0.73;;;16.20;66.80;;;;;;5114264;27;20701;-79
2023/10/22 11:47:26;;;;;;;1.63;0.65;;;16.20;93.00;;;;;;5115015;27;20204;-78
2023/10/22 11:49:53;;;;;;;3.85;0.93;;;16.20;97.10;;;;;;5117326;27;20292;-80
2023/10/22 11:52:48;;;;;;;0.98;0.80;;;16.00;1.00;;;;;;5112709;27;20224;-78
2023/10/22 11:55:15;;;;;;;0.80;0.70;;;16.00;1.00;;;;;;5115124;27;20197;-79
2023/10/22 11:57:42;;;;;;;1.30;0.80;;;16.10;1.00;;;;;;5114965;28;20217;-78
2023/10/22 12:00:10;;;;;;;1.85;0.70;;;16.20;1.00;;;;;;5113842;28;20211;-78
2023/10/22 12:02:38;;;;;;;1.13;0.70;;;16.10;1.00;;;;;;5114586;27;20213;-79
2023/10/22 12:05:06;;;;;;;1.00;0.60;;;16.20;1.00;;;;;;5115212;27;20225;-78
2023/10/22 12:07:33;;;;;;;0.63;0.30;;;16.00;1.00;;;;;;5115171;27;20291;-79
2023/10/22 12:10:01;;;;;;;0.40;0.40;;;16.20;1.00;;;;;;5114635;27;20753;-78
2023/10/22 12:12:28;;;;;;;0.47;0.28;;;16.30;1.00;;;;;;5114892;27;20211;-79
2023/10/22 12:14:54;;;;;;;0.60;0.40;;;16.20;99.90;;;;;;5113510;27;20284;-79
2023/10/22 12:17:21;;;;;;;0.20;0.20;;;16.20;99.90;;;;;;5115865;27;20205;-78
2023/10/22 12:19:48;;;;;;;2.40;0.40;;;16.20;99.90;;;;;;5119062;27;20566;-78
2023/10/22 12:22:15;;;;;;;0.20;0.20;;;16.00;99.90;;;;;;5117651;27;20699;-78
2023/10/22 12:24:42;;;;;;;1.60;0.50;;;15.90;99.90;;;;;;5115075;28;20235;-77
2023/10/22 12:27:11;;;;;;;1.55;0.40;;;15.80;99.90;;;;;;5115579;27;20197;-78
2023/10/22 12:29:38;;;;;;;1.15;0.45;;;15.80;99.90;;;;;;5120909;27;20582;-77
2023/10/22 12:32:05;;;;;;;0.98;0.30;;;15.80;99.90;;;;;;5121653;27;20318;-79
2023/10/22 12:34:32;;;;;;;1.55;0.65;;;15.70;99.90;;;;;;5119785;27;20208;-78
2023/10/22 12:36:59;;;;;;;0.45;0.25;;;15.80;99.90;;;;;;5109617;27;20212;-78
2023/10/22 12:39:25;;;;;;;1.05;0.38;;;15.60;99.90;;;;;;5116592;27;20204;-79
2023/10/22 12:41:52;;;;;;;2.30;0.55;;;15.50;99.90;;;;;;5114484;27;20221;-79
2023/10/22 12:44:24;;;;;;;0.55;0.40;;;15.60;99.90;;;;;;5115100;27;20246;-79
2023/10/22 12:46:50;;;;;;;0.85;0.30;;;15.60;99.90;;;;;;5114970;28;20212;-79
2023/10/22 12:49:17;;;;;;;0.40;0.15;;;15.50;99.90;;;;;;5113417;27;20296;-78
2023/10/22 12:51:44;;;;;;;0.52;0.20;;;15.50;99.90;;;;;;5113382;28;20232;-78